createdAt,value
2019-05-02T00:01:27.622Z,94.50
2019-05-02T00:04:02.487Z,94.60
2019-05-02T00:06:32.379Z,94.70
2019-05-02T00:09:03.960Z,94.80
2019-05-02T00:11:35.348Z,94.90
2019-05-02T00:14:06.217Z,95.00
2019-05-02T00:16:35.823Z,95.10
2019-05-02T00:19:09.215Z,95.20
2019-05-02T00:21:38.160Z,95.30
2019-05-02T00:24:10.861Z,95.40
2019-05-02T00:26:40.525Z,95.50
2019-05-02T00:29:10.275Z,95.80
2019-05-02T00:31:41.827Z,95.80
2019-05-02T00:34:11.291Z,95.60
2019-05-02T00:36:40.944Z,95.40
2019-05-02T00:39:13.729Z,94.80
2019-05-02T00:41:41.853Z,95.30
2019-05-02T00:44:12.352Z,95.20
2019-05-02T00:46:42.146Z,95.20
2019-05-02T00:49:17.802Z,95.40
2019-05-02T00:51:48.789Z,95.70
2019-05-02T00:54:19.262Z,95.80
2019-05-02T00:56:50.009Z,95.90
2019-05-02T00:59:19.621Z,96.10
2019-05-02T01:01:50.871Z,96.10
2019-05-02T01:04:27.572Z,96.10
2019-05-02T01:06:57.114Z,96.00
2019-05-02T01:09:26.806Z,96.00
2019-05-02T01:11:56.466Z,96.00
2019-05-02T01:14:31.688Z,96.00
2019-05-02T01:16:58.674Z,96.00
2019-05-02T01:19:28.458Z,96.10
2019-05-02T01:21:59.133Z,96.20
2019-05-02T01:24:28.859Z,96.20
2019-05-02T01:27:04.552Z,96.10
2019-05-02T01:29:33.004Z,96.10
2019-05-02T01:32:04.214Z,96.00
2019-05-02T01:34:35.554Z,95.90
2019-05-02T01:37:06.807Z,95.80
2019-05-02T01:39:37.952Z,95.80
2019-05-02T01:42:07.798Z,95.80
2019-05-02T01:44:38.019Z,95.70
2019-05-02T01:47:08.157Z,95.60
2019-05-02T01:49:37.796Z,95.60
2019-05-02T01:52:07.472Z,95.70
2019-05-02T01:54:40.713Z,95.70
2019-05-02T01:57:08.859Z,95.70
2019-05-02T01:59:39.721Z,95.90
2019-05-02T02:02:09.317Z,95.80
2019-05-02T02:04:39.034Z,95.80
2019-05-02T02:07:08.634Z,95.80
2019-05-02T02:09:38.815Z,96.00
2019-05-02T02:12:11.290Z,96.00
2019-05-02T02:14:40.733Z,95.30
2019-05-02T02:17:15.473Z,94.70
2019-05-02T02:19:43.269Z,95.10
2019-05-02T02:22:13.226Z,95.60
2019-05-02T02:24:44.570Z,96.00
2019-05-02T02:27:14.139Z,96.30
2019-05-02T02:29:44.397Z,96.60
2019-05-02T02:32:20.005Z,96.90
2019-05-02T02:34:46.436Z,96.30
2019-05-02T02:37:16.083Z,95.40
2019-05-02T02:39:48.389Z,95.60
2019-05-02T02:42:17.247Z,95.80
2019-05-02T02:44:48.531Z,96.50
2019-05-02T02:47:20.893Z,96.20
2019-05-02T02:49:49.356Z,96.20
2019-05-02T02:52:18.989Z,96.10
2019-05-02T02:54:48.609Z,96.30
2019-05-02T02:57:25.608Z,96.50
2019-05-02T02:59:49.558Z,96.50
2019-05-02T03:02:19.216Z,96.30
2019-05-02T03:04:48.786Z,96.40
2019-05-02T03:07:25.600Z,96.70
2019-05-02T03:09:49.658Z,96.60
2019-05-02T03:12:19.813Z,96.60
2019-05-02T03:14:51.284Z,96.90
2019-05-02T03:17:26.008Z,97.20
2019-05-02T03:19:54.271Z,96.80
2019-05-02T03:22:23.721Z,96.00
2019-05-02T03:24:53.483Z,95.90
2019-05-02T03:27:23.165Z,95.90
2019-05-02T03:29:52.829Z,96.10
2019-05-02T03:32:34.120Z,96.10
2019-05-02T03:34:57.333Z,96.20
2019-05-02T03:37:27.402Z,96.00
2019-05-02T03:40:00.151Z,96.20
2019-05-02T03:42:28.277Z,96.10
2019-05-02T03:45:03.838Z,96.30
2019-05-02T03:47:30.467Z,96.10
2019-05-02T03:50:00.257Z,96.00
2019-05-02T03:52:30.213Z,96.10
2019-05-02T03:54:59.943Z,96.40
2019-05-02T03:57:33.542Z,97.10
2019-05-02T04:00:00.894Z,97.00
2019-05-02T04:02:30.501Z,96.80
2019-05-02T04:05:01.177Z,96.50
2019-05-02T04:07:40.537Z,96.30
2019-05-02T04:10:07.573Z,96.80
2019-05-02T04:12:37.325Z,96.90
2019-05-02T04:15:09.761Z,96.90
2019-05-02T04:17:40.361Z,97.10
2019-05-02T04:20:12.476Z,97.30
2019-05-02T04:22:42.778Z,96.80
2019-05-02T04:25:12.949Z,96.40
2019-05-02T04:27:43.462Z,95.20
2019-05-02T04:30:14.303Z,95.30
2019-05-02T04:32:49.873Z,95.30
2019-05-02T04:35:16.537Z,95.00
2019-05-02T04:37:46.112Z,95.00
2019-05-02T04:40:18.217Z,95.20
2019-05-02T04:42:53.417Z,95.60
2019-05-02T04:45:26.457Z,96.30
2019-05-02T04:47:58.456Z,96.20
2019-05-02T04:50:25.139Z,95.80
2019-05-02T04:52:53.782Z,95.20
2019-05-02T04:55:30.195Z,94.20
2019-05-02T04:57:54.274Z,93.40
2019-05-02T05:00:28.645Z,92.10
2019-05-02T05:02:58.688Z,90.90
2019-05-02T05:05:31.016Z,85.00
2019-05-02T05:07:59.549Z,80.70
2019-05-02T05:10:40.136Z,77.80
2019-05-02T05:13:00.420Z,76.00
2019-05-02T05:15:39.830Z,72.70
2019-05-02T05:18:04.404Z,69.30
2019-05-02T05:20:32.279Z,69.00
2019-05-02T05:23:03.361Z,65.00
2019-05-02T05:25:34.551Z,63.30
2019-05-02T05:28:06.066Z,61.70
2019-05-02T05:30:37.705Z,58.90
2019-05-02T05:33:07.634Z,57.40
2019-05-02T05:35:38.531Z,55.60
2019-05-02T05:38:08.563Z,54.60
2019-05-02T05:40:38.273Z,53.60
2019-05-02T05:43:14.427Z,52.80
2019-05-02T05:45:51.181Z,50.70
2019-05-02T05:48:10.431Z,50.40
2019-05-02T05:50:41.523Z,50.20
2019-05-02T05:53:16.533Z,50.50
2019-05-02T05:55:43.742Z,50.90
2019-05-02T05:58:15.846Z,50.70
2019-05-02T06:00:45.994Z,50.00
2019-05-02T06:03:17.765Z,49.70
2019-05-02T06:05:47.752Z,50.00
2019-05-02T06:08:18.528Z,50.60
2019-05-02T06:10:49.142Z,52.00
2019-05-02T06:13:18.825Z,51.70
2019-05-02T06:16:00.978Z,53.10
2019-05-02T06:18:19.692Z,53.80
2019-05-02T06:20:49.207Z,54.80
2019-05-02T06:23:19.380Z,54.90
2019-05-02T06:25:49.060Z,56.20
2019-05-02T06:28:18.707Z,56.20
2019-05-02T06:30:48.318Z,56.30
2019-05-02T06:33:21.320Z,55.80
2019-05-02T06:35:51.912Z,55.70
2019-05-02T06:38:22.934Z,55.60
2019-05-02T06:40:53.106Z,55.50
2019-05-02T06:43:22.766Z,55.30
2019-05-02T06:45:52.427Z,54.70
2019-05-02T06:48:22.032Z,54.20
2019-05-02T06:50:51.619Z,54.20
2019-05-02T06:53:21.258Z,54.50
2019-05-02T06:55:50.913Z,53.70
2019-05-02T06:58:20.621Z,53.10
2019-05-02T07:00:58.239Z,52.40
2019-05-02T07:03:21.848Z,51.60
2019-05-02T07:06:02.741Z,52.20
2019-05-02T07:09:05.519Z,51.70
2019-05-02T07:11:42.168Z,51.70
2019-05-02T07:14:32.948Z,51.10
2019-05-02T07:17:17.625Z,49.80
2019-05-02T07:19:51.181Z,48.80
2019-05-02T07:22:51.794Z,49.30
2019-05-02T07:25:34.667Z,48.50
2019-05-02T07:28:12.465Z,49.50
2019-05-02T07:31:00.571Z,49.20
2019-05-02T07:33:43.066Z,49.90
2019-05-02T07:36:31.044Z,49.00
2019-05-02T07:39:06.361Z,49.50
2019-05-02T07:41:43.215Z,49.20
2019-05-02T07:44:15.889Z,49.70
2019-05-02T07:46:56.994Z,48.80
2019-05-02T07:49:38.682Z,48.80
2019-05-02T07:52:17.091Z,50.30
2019-05-02T07:54:48.314Z,48.20
2019-05-02T07:57:25.256Z,49.80
2019-05-02T08:00:02.744Z,49.70
2019-05-02T08:02:36.775Z,49.40
2019-05-02T08:05:09.652Z,48.60
2019-05-02T08:07:42.071Z,45.90
2019-05-02T08:10:16.496Z,46.90
2019-05-02T08:12:53.253Z,46.80
2019-05-02T08:15:39.757Z,45.00
2019-05-02T08:18:17.291Z,44.10
2019-05-02T08:20:57.487Z,44.50
2019-05-02T08:23:32.280Z,46.30
2019-05-02T08:26:08.667Z,46.00
2019-05-02T08:28:46.986Z,38.50
2019-05-02T08:31:19.012Z,38.70
2019-05-02T08:33:49.394Z,40.00
2019-05-02T08:36:18.973Z,38.70
2019-05-02T08:38:48.839Z,39.60
2019-05-02T08:41:20.262Z,38.60
2019-05-02T08:43:51.105Z,40.10
2019-05-02T08:46:20.754Z,39.70
2019-05-02T08:48:50.783Z,40.40
2019-05-02T08:51:20.745Z,40.10
2019-05-02T08:53:52.124Z,39.60
2019-05-02T08:56:23.801Z,40.70
2019-05-02T08:58:53.421Z,40.30
2019-05-02T09:01:34.588Z,41.40
2019-05-02T09:03:57.579Z,41.30
2019-05-02T09:06:27.264Z,41.80
2019-05-02T09:08:56.803Z,39.40
2019-05-02T09:11:26.481Z,39.40
2019-05-02T09:13:56.192Z,39.40
2019-05-02T09:16:28.909Z,41.10
2019-05-02T09:18:58.822Z,40.80
2019-05-02T09:21:32.201Z,44.50
2019-05-02T09:23:59.818Z,45.20
2019-05-02T09:26:36.041Z,41.20
2019-05-02T09:29:04.987Z,38.90
2019-05-02T09:31:32.129Z,39.20
2019-05-02T09:34:02.918Z,37.20
2019-05-02T09:36:38.166Z,38.80
2019-05-02T09:39:08.282Z,37.50
2019-05-02T09:41:38.102Z,40.20
2019-05-02T09:44:08.969Z,37.30
2019-05-02T09:46:42.838Z,37.70
2019-05-02T09:49:16.378Z,37.60
2019-05-02T09:51:45.640Z,37.00
2019-05-02T09:54:17.422Z,39.70
2019-05-02T09:56:47.136Z,37.80
2019-05-02T09:59:27.849Z,38.80
2019-05-02T10:01:49.575Z,40.20
2019-05-02T10:04:19.303Z,39.80
2019-05-02T10:06:49.038Z,39.60
2019-05-02T10:09:22.922Z,39.80
2019-05-02T10:11:49.998Z,41.40
2019-05-02T10:14:19.527Z,40.50
2019-05-02T10:16:49.227Z,42.20
2019-05-02T10:19:18.930Z,43.60
2019-05-02T10:21:54.319Z,39.60
2019-05-02T10:24:22.049Z,41.00
2019-05-02T10:26:55.151Z,41.40
2019-05-02T10:29:28.110Z,41.30
2019-05-02T10:31:53.941Z,42.20
2019-05-02T10:34:23.706Z,41.70
2019-05-02T10:36:58.723Z,41.20
2019-05-02T10:39:28.435Z,43.70
2019-05-02T10:41:57.598Z,43.80
2019-05-02T10:44:31.933Z,42.60
2019-05-02T10:46:59.436Z,41.70
2019-05-02T10:49:32.130Z,40.80
2019-05-02T10:52:02.655Z,42.90
2019-05-02T10:54:33.870Z,43.30
2019-05-02T10:57:03.767Z,43.00
2019-05-02T10:59:33.449Z,43.40
2019-05-02T11:02:04.685Z,43.70
2019-05-02T11:04:36.025Z,44.00
2019-05-02T11:07:05.653Z,41.50
2019-05-02T11:09:35.346Z,41.40
2019-05-02T11:12:06.684Z,39.60
2019-05-02T11:14:37.897Z,41.60
2019-05-02T11:17:13.860Z,41.40
2019-05-02T11:19:42.093Z,39.90
2019-05-02T11:22:12.200Z,44.50
2019-05-02T11:24:42.109Z,41.30
2019-05-02T11:27:12.939Z,39.80
2019-05-02T11:29:42.683Z,39.30
2019-05-02T11:32:13.399Z,38.10
2019-05-02T11:34:43.178Z,39.30
2019-05-02T11:37:12.735Z,41.70
2019-05-02T11:39:48.867Z,42.80
2019-05-02T11:42:17.789Z,45.00
2019-05-02T11:44:44.882Z,43.40
2019-05-02T11:47:17.312Z,39.60
2019-05-02T11:49:53.937Z,42.10
2019-05-02T11:52:18.614Z,40.50
2019-05-02T11:54:48.601Z,39.80
2019-05-02T11:57:21.308Z,41.70
2019-05-02T11:59:52.086Z,37.20
2019-05-02T12:02:22.129Z,38.70
2019-05-02T12:04:54.630Z,38.40
2019-05-02T12:07:23.217Z,37.60
2019-05-02T12:09:57.054Z,37.30
2019-05-02T12:12:27.279Z,39.00
2019-05-02T12:14:56.498Z,33.90
2019-05-02T12:17:26.086Z,34.40
2019-05-02T12:19:55.639Z,35.70
2019-05-02T12:22:25.266Z,35.30
2019-05-02T12:24:55.177Z,35.00
2019-05-02T12:27:24.788Z,39.40
2019-05-02T12:29:57.777Z,40.80
2019-05-02T12:32:25.726Z,40.10
2019-05-02T12:34:55.406Z,38.10
2019-05-02T12:37:25.118Z,36.50
2019-05-02T12:39:54.820Z,35.70
2019-05-02T12:42:24.887Z,32.80
2019-05-02T12:44:54.797Z,33.60
2019-05-02T12:47:24.378Z,36.10
2019-05-02T12:49:53.986Z,34.30
2019-05-02T12:52:23.666Z,34.00
2019-05-02T12:54:53.181Z,36.00
2019-05-02T12:57:22.906Z,38.90
2019-05-02T12:59:52.570Z,37.50
2019-05-02T13:02:23.982Z,32.30
2019-05-02T13:04:53.507Z,33.20
2019-05-02T13:07:23.381Z,35.20
2019-05-02T13:09:53.074Z,35.00
2019-05-02T13:12:24.326Z,34.90
2019-05-02T13:14:54.062Z,31.60
2019-05-02T13:17:23.797Z,31.10
2019-05-02T13:19:56.995Z,32.30
2019-05-02T13:22:26.388Z,31.80
2019-05-02T13:24:57.628Z,30.70
2019-05-02T13:27:32.236Z,32.10
2019-05-02T13:29:58.986Z,33.20
2019-05-02T13:32:32.101Z,32.40
2019-05-02T13:35:03.208Z,30.80
2019-05-02T13:37:32.926Z,34.60
2019-05-02T13:40:04.152Z,29.80
2019-05-02T13:42:33.827Z,34.40
2019-05-02T13:45:05.498Z,34.30
2019-05-02T13:47:34.335Z,30.60
2019-05-02T13:50:05.740Z,32.30
2019-05-02T13:52:36.256Z,31.60
2019-05-02T13:55:08.606Z,31.10
2019-05-02T13:57:43.112Z,31.40
2019-05-02T14:00:12.792Z,34.30
2019-05-02T14:02:45.023Z,32.20
2019-05-02T14:05:16.527Z,30.10
2019-05-02T14:07:48.290Z,29.30
2019-05-02T14:10:22.771Z,32.10
2019-05-02T14:12:53.855Z,35.50
2019-05-02T14:15:25.175Z,32.40
2019-05-02T14:17:54.799Z,29.10
2019-05-02T14:20:24.580Z,29.00
2019-05-02T14:22:54.213Z,29.00
2019-05-02T14:25:23.892Z,28.00
2019-05-02T14:27:55.688Z,28.40
2019-05-02T14:30:38.145Z,28.70
2019-05-02T14:33:02.380Z,30.10
2019-05-02T14:35:36.099Z,25.60
2019-05-02T14:38:07.029Z,26.30
2019-05-02T14:40:39.839Z,27.10
2019-05-02T14:43:09.501Z,27.50
2019-05-02T14:45:41.256Z,28.10
2019-05-02T14:48:21.109Z,29.60
2019-05-02T14:50:45.584Z,29.80
2019-05-02T14:53:16.824Z,29.70
2019-05-02T14:55:46.643Z,29.40
2019-05-02T14:58:18.581Z,29.20
2019-05-02T15:00:49.912Z,30.00
2019-05-02T15:03:28.397Z,31.00
2019-05-02T15:05:58.961Z,31.10
2019-05-02T15:08:29.018Z,31.10
2019-05-02T15:10:58.628Z,31.50
2019-05-02T15:13:32.345Z,27.10
2019-05-02T15:15:59.642Z,26.70
2019-05-02T15:18:29.381Z,27.60
2019-05-02T15:20:59.062Z,26.10
2019-05-02T15:23:28.918Z,27.10
2019-05-02T15:25:58.510Z,27.90
2019-05-02T15:28:30.527Z,26.60
2019-05-02T15:31:04.375Z,27.70
2019-05-02T15:33:34.809Z,29.20
2019-05-02T15:36:07.478Z,27.20
2019-05-02T15:38:45.573Z,27.30
2019-05-02T15:41:12.828Z,26.10
2019-05-02T15:43:44.466Z,26.50
2019-05-02T15:46:15.691Z,25.80
2019-05-02T15:48:43.771Z,25.70
2019-05-02T15:51:13.371Z,27.50
2019-05-02T15:53:49.687Z,29.10
2019-05-02T15:56:20.021Z,28.50
2019-05-02T15:58:47.328Z,29.20
2019-05-02T16:01:18.524Z,29.30
2019-05-02T16:03:49.818Z,29.30
2019-05-02T16:06:23.955Z,29.30
2019-05-02T16:08:51.956Z,30.00
2019-05-02T16:11:23.004Z,29.60
2019-05-02T16:13:55.826Z,29.40
2019-05-02T16:16:25.258Z,30.40
2019-05-02T16:18:54.913Z,30.80
2019-05-02T16:21:29.908Z,30.70
2019-05-02T16:24:04.255Z,32.50
2019-05-02T16:26:37.138Z,31.10
2019-05-02T16:29:03.123Z,31.40
2019-05-02T16:31:34.307Z,32.00
2019-05-02T16:34:04.050Z,31.30
2019-05-02T16:36:37.416Z,32.40
2019-05-02T16:39:10.007Z,31.40
2019-05-02T16:41:41.321Z,32.60
2019-05-02T16:44:12.682Z,33.20
2019-05-02T16:46:43.798Z,33.70
2019-05-02T16:49:18.496Z,33.50
2019-05-02T16:51:46.441Z,34.20
2019-05-02T16:54:16.101Z,34.30
2019-05-02T16:56:46.119Z,33.90
2019-05-02T16:59:16.937Z,34.40
2019-05-02T17:01:48.006Z,35.00
2019-05-02T17:04:17.482Z,35.40
2019-05-02T17:06:47.439Z,36.20
2019-05-02T17:09:18.693Z,37.80
2019-05-02T17:11:48.973Z,38.30
2019-05-02T17:14:18.481Z,39.10
2019-05-02T17:16:52.409Z,39.80
2019-05-02T17:19:19.278Z,41.50
2019-05-02T17:21:55.371Z,41.40
2019-05-02T17:24:22.665Z,41.40
2019-05-02T17:26:51.853Z,41.80
2019-05-02T17:29:22.666Z,42.50
2019-05-02T17:31:55.415Z,42.70
2019-05-02T17:34:30.797Z,43.40
2019-05-02T17:36:59.215Z,43.90
2019-05-02T17:39:27.257Z,44.30
2019-05-02T17:41:56.918Z,45.00
2019-05-02T17:44:26.482Z,45.60
2019-05-02T17:46:58.095Z,45.50
2019-05-02T17:49:31.929Z,45.80
2019-05-02T17:52:05.808Z,46.10
2019-05-02T17:54:31.702Z,46.40
2019-05-02T17:57:02.196Z,47.00
2019-05-02T17:59:34.616Z,47.90
2019-05-02T18:02:06.667Z,48.00
2019-05-02T18:04:35.763Z,47.90
2019-05-02T18:07:05.898Z,48.10
2019-05-02T18:09:35.598Z,48.50
2019-05-02T18:12:07.169Z,48.90
2019-05-02T18:14:37.041Z,49.30
2019-05-02T18:17:06.698Z,49.70
2019-05-02T18:19:36.356Z,49.80
2019-05-02T18:22:08.319Z,50.00
2019-05-02T18:24:41.783Z,50.40
2019-05-02T18:27:09.118Z,50.40
2019-05-02T18:29:42.424Z,50.80
2019-05-02T18:32:10.178Z,51.20
2019-05-02T18:34:41.823Z,51.70
2019-05-02T18:37:12.227Z,52.00
2019-05-02T18:39:47.172Z,52.40
2019-05-02T18:42:16.528Z,53.70
2019-05-02T18:44:48.325Z,54.30
2019-05-02T18:47:20.246Z,54.40
2019-05-02T18:49:46.961Z,55.30
2019-05-02T18:52:16.622Z,52.60
2019-05-02T18:54:47.444Z,54.30
2019-05-02T18:57:21.732Z,56.60
2019-05-02T18:59:52.070Z,57.20
2019-05-02T19:02:21.251Z,59.40
2019-05-02T19:04:51.633Z,62.10
2019-05-02T19:07:32.853Z,65.20
2019-05-02T19:09:53.923Z,65.90
2019-05-02T19:12:26.025Z,68.10
2019-05-02T19:14:57.479Z,70.40
2019-05-02T19:17:28.025Z,73.40
2019-05-02T19:19:57.681Z,76.40
2019-05-02T19:22:27.218Z,79.70
2019-05-02T19:24:56.848Z,82.10
2019-05-02T19:27:28.048Z,83.80
2019-05-02T19:29:58.316Z,85.70
2019-05-02T19:32:45.561Z,87.20
2019-05-02T19:35:32.896Z,87.90
2019-05-02T19:38:17.066Z,88.70
2019-05-02T19:41:07.167Z,89.50
2019-05-02T19:43:35.007Z,90.10
2019-05-02T19:46:05.014Z,90.30
2019-05-02T19:48:36.803Z,90.50
2019-05-02T19:51:12.713Z,90.90
2019-05-02T19:53:37.456Z,91.20
2019-05-02T19:56:07.114Z,91.60
2019-05-02T19:58:41.638Z,92.00
2019-05-02T20:01:08.044Z,92.20
2019-05-02T20:03:37.766Z,92.60
2019-05-02T20:06:07.565Z,93.00
2019-05-02T20:08:37.145Z,93.30
2019-05-02T20:11:06.841Z,93.60
2019-05-02T20:13:36.597Z,93.90
2019-05-02T20:16:11.850Z,94.00
2019-05-02T20:18:43.870Z,94.00
2019-05-02T20:21:23.375Z,94.00
2019-05-02T20:23:45.655Z,94.00
2019-05-02T20:26:17.102Z,93.40
2019-05-02T20:28:46.926Z,93.20
2019-05-02T20:31:16.583Z,92.40
2019-05-02T20:33:46.210Z,92.10
2019-05-02T20:36:15.884Z,92.10
2019-05-02T20:38:45.516Z,92.20
2019-05-02T20:41:15.237Z,92.10
2019-05-02T20:43:45.045Z,92.40
2019-05-02T20:46:15.038Z,92.30
2019-05-02T20:48:44.559Z,92.30
2019-05-02T20:51:14.207Z,92.40
2019-05-02T20:53:43.842Z,92.40
2019-05-02T20:56:13.491Z,92.60
2019-05-02T20:58:43.129Z,92.70
2019-05-02T21:01:12.767Z,92.60
2019-05-02T21:03:42.958Z,92.50
2019-05-02T21:06:14.236Z,92.70
2019-05-02T21:08:45.512Z,93.10
2019-05-02T21:11:15.198Z,93.50
2019-05-02T21:13:45.014Z,93.80
2019-05-02T21:16:14.601Z,94.40
2019-05-02T21:18:44.185Z,94.80
2019-05-02T21:21:13.843Z,95.00
2019-05-02T21:23:47.254Z,95.20
2019-05-02T21:26:14.798Z,95.20
2019-05-02T21:28:46.181Z,95.50
2019-05-02T21:31:15.617Z,95.70
2019-05-02T21:33:45.403Z,96.10
2019-05-02T21:36:15.035Z,96.20
2019-05-02T21:38:44.627Z,96.60
2019-05-02T21:41:15.035Z,96.80
2019-05-02T21:43:44.596Z,96.90
2019-05-02T21:46:14.215Z,97.10
2019-05-02T21:48:43.841Z,97.10
2019-05-02T21:51:15.099Z,97.30
2019-05-02T21:53:55.160Z,97.40
2019-05-02T21:56:19.178Z,97.30
2019-05-02T21:58:51.954Z,97.50
2019-05-02T22:01:26.308Z,97.70
2019-05-02T22:03:53.395Z,97.70
2019-05-02T22:06:23.081Z,98.00
2019-05-02T22:08:52.723Z,97.90
2019-05-02T22:11:22.598Z,97.90
2019-05-02T22:13:52.386Z,98.00
2019-05-02T22:16:22.048Z,97.90
2019-05-02T22:18:52.190Z,97.80
2019-05-02T22:21:22.801Z,97.90
2019-05-02T22:23:52.552Z,98.10
2019-05-02T22:26:22.137Z,98.20
2019-05-02T22:28:53.629Z,98.20
2019-05-02T22:31:23.415Z,98.30
2019-05-02T22:33:53.029Z,98.40
2019-05-02T22:36:22.637Z,98.50
2019-05-02T22:38:53.883Z,98.60
2019-05-02T22:41:23.550Z,98.70
2019-05-02T22:43:53.178Z,98.70
2019-05-02T22:46:24.406Z,98.80
2019-05-02T22:48:54.044Z,99.00
2019-05-02T22:51:23.651Z,98.70
2019-05-02T22:53:53.304Z,98.80
2019-05-02T22:56:22.936Z,98.80
2019-05-02T22:58:52.578Z,98.90
2019-05-02T23:01:22.235Z,99.00
2019-05-02T23:03:52.452Z,99.10
2019-05-02T23:06:22.202Z,99.20
2019-05-02T23:08:52.451Z,99.30
2019-05-02T23:11:24.485Z,99.30
2019-05-02T23:13:53.859Z,99.40
2019-05-02T23:16:23.444Z,99.40
2019-05-02T23:18:53.126Z,99.40
2019-05-02T23:21:22.732Z,99.50
2019-05-02T23:23:52.435Z,99.50
2019-05-02T23:26:22.512Z,99.50
2019-05-02T23:28:53.770Z,99.50
2019-05-02T23:31:23.377Z,99.60
2019-05-02T23:33:54.741Z,99.70
2019-05-02T23:36:24.424Z,99.80
2019-05-02T23:38:54.088Z,99.80
2019-05-02T23:41:23.731Z,99.80
2019-05-02T23:43:53.380Z,99.70
2019-05-02T23:46:23.643Z,99.50
2019-05-02T23:48:53.277Z,99.30
2019-05-02T23:51:22.862Z,99.20
2019-05-02T23:53:52.768Z,99.10
2019-05-02T23:56:22.622Z,98.90
2019-05-02T23:58:52.208Z,98.90
